Terminal Aerodrome Forecast
Issued by NWS Denver/Boulder, CO

Home | Current Version | Previous Version | Text Only | Print | Product List | Glossary On
Versions: 1 2 3 4 5 6 7 8 9 10 11 12 13 14 15 16 17 18 19 20 21 22 23 24 25 26 27 28 29 30 31 32 33 34 35 36 37 38 39 40 41 42 43 44 45 46 47 48 49 50
000
FTUS45 KBOU 251739
TAFDEN
TAF
KDEN 251739Z 2518/2624 04008KT P6SM SCT007 BKN012 BKN040
     FM252100 07009KT P6SM VCSH BKN022 OVC060
      TEMPO 2522/2602 4SM -SHRA OVC012
     FM260400 16005KT P6SM SCT015 SCT025 BKN100
     FM260700 13006KT P6SM VCFG SCT070
     FM261000 13006KT 1/2SM FG OVC001
     FM261600 14005KT P6SM FEW010
     FM261900 10009KT P6SM SCT025 BKN050=

USA.gov is the U.S. government's official web portal to all federal, state and local government web resources and services.